Terminal Aerodrome Forecast
Issued by NWS Austin/San Antonio, TX

Home | Current Version | Previous Version | Text Only | Print | Product List | Glossary On
Versions: 1 2 3 4 5 6 7 8 9 10 11 12
000
FTUS44 KEWX 272330
TAFDRT
TAF
KDRT 272330Z 2800/2824 12008KT P6SM FEW040 BKN250
     FM280200 09007KT P6SM BKN250
     FM281000 10006KT P6SM SCT015=

USA.gov is the U.S. government's official web portal to all federal, state and local government web resources and services.